sensor_id;sensor_type;location;lat;lon;timestamp;pressure;altitude;pressure_sealevel;temperature;humidity
63946;BME280;50122;56.330;43.838;2023-04-07T04:50:05;102061.03;;;0.60;54.21
63946;BME280;50122;56.330;43.838;2023-04-07T04:52:34;102060.25;;;0.63;55.06
63946;BME280;50122;56.330;43.838;2023-04-07T04:55:01;102061.28;;;0.69;54.89
63946;BME280;50122;56.330;43.838;2023-04-07T04:57:27;102067.53;;;0.78;54.91
63946;BME280;50122;56.330;43.838;2023-04-07T04:59:57;102067.69;;;0.82;54.16
63946;BME280;50122;56.330;43.838;2023-04-07T05:02:24;102069.53;;;0.88;54.26
63946;BME280;50122;56.330;43.838;2023-04-07T05:04:51;102072.38;;;0.97;54.81
63946;BME280;50122;56.330;43.838;2023-04-07T05:07:19;102067.56;;;1.13;54.21
63946;BME280;50122;56.330;43.838;2023-04-07T05:09:46;102068.59;;;1.21;53.47
63946;BME280;50122;56.330;43.838;2023-04-07T05:12:12;102058.19;;;1.23;53.64
63946;BME280;50122;56.330;43.838;2023-04-07T05:14:41;102078.28;;;1.27;53.30
63946;BME280;50122;56.330;43.838;2023-04-07T05:17:08;102068.88;;;1.33;52.97
63946;BME280;50122;56.330;43.838;2023-04-07T05:19:34;102065.50;;;1.37;52.72
63946;BME280;50122;56.330;43.838;2023-04-07T05:22:02;102062.13;;;1.42;52.05
63946;BME280;50122;56.330;43.838;2023-04-07T05:24:29;102070.00;;;1.45;51.73
63946;BME280;50122;56.330;43.838;2023-04-07T05:26:55;102068.34;;;1.48;51.84
63946;BME280;50122;56.330;43.838;2023-04-07T05:29:22;102065.84;;;1.53;51.53
63946;BME280;50122;56.330;43.838;2023-04-07T05:31:49;102072.91;;;1.59;51.54
63946;BME280;50122;56.330;43.838;2023-04-07T05:34:15;102068.69;;;1.64;51.48
63946;BME280;50122;56.330;43.838;2023-04-07T05:36:43;102070.53;;;1.68;50.24
63946;BME280;50122;56.330;43.838;2023-04-07T05:39:10;102075.75;;;1.69;50.11
63946;BME280;50122;56.330;43.838;2023-04-07T05:41:37;102082.81;;;1.73;49.82
63946;BME280;50122;56.330;43.838;2023-04-07T05:44:03;102088.13;;;1.78;50.32
63946;BME280;50122;56.330;43.838;2023-04-07T05:46:31;102080.44;;;1.86;50.40
63946;BME280;50122;56.330;43.838;2023-04-07T05:48:58;102087.59;;;1.96;49.96
63946;BME280;50122;56.330;43.838;2023-04-07T05:51:44;102088.66;;;2.04;49.33
63946;BME280;50122;56.330;43.838;2023-04-07T05:54:13;102085.31;;;2.12;47.89
63946;BME280;50122;56.330;43.838;2023-04-07T05:56:40;102081.03;;;2.15;48.07
63946;BME280;50122;56.330;43.838;2023-04-07T05:59:06;102084.59;;;2.19;48.34
63946;BME280;50122;56.330;43.838;2023-04-07T06:01:33;102091.63;;;2.23;48.47
63946;BME280;50122;56.330;43.838;2023-04-07T06:04:00;102092.56;;;2.26;47.71
63946;BME280;50122;56.330;43.838;2023-04-07T06:06:28;102094.34;;;2.29;48.17
63946;BME280;50122;56.330;43.838;2023-04-07T06:08:55;102087.56;;;2.37;47.77
63946;BME280;50122;56.330;43.838;2023-04-07T06:11:22;102096.38;;;2.44;47.50
63946;BME280;50122;56.330;43.838;2023-04-07T06:13:48;102092.13;;;2.49;47.21
63946;BME280;50122;56.330;43.838;2023-04-07T06:16:15;102093.13;;;2.56;47.62
63946;BME280;50122;56.330;43.838;2023-04-07T06:18:44;102083.78;;;2.69;47.07
63946;BME280;50122;56.330;43.838;2023-04-07T06:21:11;102092.56;;;2.74;46.01
63946;BME280;50122;56.330;43.838;2023-04-07T06:23:38;102095.25;;;2.78;46.88
63946;BME280;50122;56.330;43.838;2023-04-07T06:26:04;102099.69;;;2.84;45.86
63946;BME280;50122;56.330;43.838;2023-04-07T06:28:31;102091.91;;;2.87;45.49
63946;BME280;50122;56.330;43.838;2023-04-07T06:30:58;102093.72;;;2.91;46.75
63946;BME280;50122;56.330;43.838;2023-04-07T06:33:25;102096.38;;;2.94;45.45
63946;BME280;50122;56.330;43.838;2023-04-07T06:35:53;102101.72;;;3.01;45.35
63946;BME280;50122;56.330;43.838;2023-04-07T06:38:20;102099.25;;;3.10;45.40
63946;BME280;50122;56.330;43.838;2023-04-07T06:40:47;102095.09;;;3.21;45.31
63946;BME280;50122;56.330;43.838;2023-04-07T06:43:14;102096.09;;;3.29;44.88
63946;BME280;50122;56.330;43.838;2023-04-07T06:45:40;102091.84;;;3.38;45.56
63946;BME280;50122;56.330;43.838;2023-04-07T06:48:10;102088.56;;;3.50;45.22
63946;BME280;50122;56.330;43.838;2023-04-07T06:50:37;102095.69;;;3.61;44.01
63946;BME280;50122;56.330;43.838;2023-04-07T06:53:06;102101.88;;;3.70;44.08
63946;BME280;50122;56.330;43.838;2023-04-07T06:55:33;102105.44;;;3.75;43.11
63946;BME280;50122;56.330;43.838;2023-04-07T06:58:00;102108.13;;;3.79;43.59
63946;BME280;50122;56.330;43.838;2023-04-07T07:00:27;102102.97;;;3.86;42.33
63946;BME280;50122;56.330;43.838;2023-04-07T07:02:57;102108.34;;;3.95;42.24
63946;BME280;50122;56.330;43.838;2023-04-07T07:05:24;102104.09;;;4.05;42.73
63946;BME280;50122;56.330;43.838;2023-04-07T07:07:51;102097.25;;;4.16;41.73
63946;BME280;50122;56.330;43.838;2023-04-07T07:10:18;102099.13;;;4.26;41.52
63946;BME280;50122;56.330;43.838;2023-04-07T07:12:49;102102.59;;;4.25;41.25
63946;BME280;50122;56.330;43.838;2023-04-07T07:15:16;102093.00;;;4.27;40.43
63946;BME280;50122;56.330;43.838;2023-04-07T07:17:44;102104.50;;;4.42;40.55
63946;BME280;50122;56.330;43.838;2023-04-07T07:20:10;102106.41;;;4.54;40.15
63946;BME280;50122;56.330;43.838;2023-04-07T07:22:37;102096.81;;;4.57;39.04
63946;BME280;50122;56.330;43.838;2023-04-07T07:25:05;102101.22;;;4.60;38.33
63946;BME280;50122;56.330;43.838;2023-04-07T07:27:35;102101.22;;;4.58;37.92
63946;BME280;50122;56.330;43.838;2023-04-07T07:30:01;102100.41;;;4.67;38.27
63946;BME280;50122;56.330;43.838;2023-04-07T07:32:28;102092.66;;;4.81;37.49
63946;BME280;50122;56.330;43.838;2023-04-07T07:34:54;102087.50;;;4.85;36.86
63946;BME280;50122;56.330;43.838;2023-04-07T07:37:21;102093.66;;;4.95;37.45
63946;BME280;50122;56.330;43.838;2023-04-07T07:39:48;102088.53;;;5.06;36.05
63946;BME280;50122;56.330;43.838;2023-04-07T07:42:15;102093.78;;;5.08;35.05
63946;BME280;50122;56.330;43.838;2023-04-07T07:44:41;102096.44;;;5.14;35.38
63946;BME280;50122;56.330;43.838;2023-04-07T07:47:08;102083.44;;;5.28;35.82
63946;BME280;50122;56.330;43.838;2023-04-07T07:49:35;102090.47;;;5.30;35.48
63946;BME280;50122;56.330;43.838;2023-04-07T07:52:02;102075.66;;;5.40;35.01
63946;BME280;50122;56.330;43.838;2023-04-07T07:54:29;102093.25;;;5.58;35.07
63946;BME280;50122;56.330;43.838;2023-04-07T07:56:55;102086.34;;;5.77;34.20
63946;BME280;50122;56.330;43.838;2023-04-07T07:59:22;102089.06;;;5.91;33.79
63946;BME280;50122;56.330;43.838;2023-04-07T08:01:50;102081.19;;;5.93;34.02
63946;BME280;50122;56.330;43.838;2023-04-07T08:04:16;102085.63;;;5.98;33.97
63946;BME280;50122;56.330;43.838;2023-04-07T08:06:43;102082.16;;;6.13;34.31
63946;BME280;50122;56.330;43.838;2023-04-07T08:09:10;102077.84;;;6.21;33.51
63946;BME280;50122;56.330;43.838;2023-04-07T08:11:37;102088.34;;;6.20;33.07
63946;BME280;50122;56.330;43.838;2023-04-07T08:14:04;102083.06;;;6.17;32.21
63946;BME280;50122;56.330;43.838;2023-04-07T08:16:32;102087.44;;;6.18;32.28
63946;BME280;50122;56.330;43.838;2023-04-07T08:18:58;102085.72;;;6.23;32.50
63946;BME280;50122;56.330;43.838;2023-04-07T08:21:25;102089.25;;;6.33;32.49
63946;BME280;50122;56.330;43.838;2023-04-07T08:23:55;102089.25;;;6.34;32.33
63946;BME280;50122;56.330;43.838;2023-04-07T08:26:21;102092.75;;;6.39;31.60
63946;BME280;50122;56.330;43.838;2023-04-07T08:28:49;102085.78;;;6.49;31.58
63946;BME280;50122;56.330;43.838;2023-04-07T08:31:20;102085.81;;;6.62;32.01
63946;BME280;50122;56.330;43.838;2023-04-07T08:33:46;102088.44;;;6.75;31.16
63946;BME280;50122;56.330;43.838;2023-04-07T08:36:13;102081.44;;;6.79;30.86
63946;BME280;50122;56.330;43.838;2023-04-07T08:38:40;102080.56;;;6.85;31.06
63946;BME280;50122;56.330;43.838;2023-04-07T08:41:10;102084.06;;;6.96;30.85
63946;BME280;50122;56.330;43.838;2023-04-07T08:43:38;102086.69;;;7.07;30.87
63946;BME280;50122;56.330;43.838;2023-04-07T08:46:08;102087.56;;;7.23;30.50
63946;BME280;50122;56.330;43.838;2023-04-07T08:48:37;102085.78;;;7.25;29.69
63946;BME280;50122;56.330;43.838;2023-04-07T08:51:06;102082.28;;;7.26;29.28
63946;BME280;50122;56.330;43.838;2023-04-07T08:53:41;102085.81;;;7.33;29.20
63946;BME280;50122;56.330;43.838;2023-04-07T08:56:12;102088.41;;;7.39;28.66
63946;BME280;50122;56.330;43.838;2023-04-07T08:58:39;102084.03;;;7.45;28.87
63946;BME280;50122;56.330;43.838;2023-04-07T09:01:06;102095.41;;;7.47;28.03
63946;BME280;50122;56.330;43.838;2023-04-07T09:03:33;102086.63;;;7.55;29.32
63946;BME280;50122;56.330;43.838;2023-04-07T09:06:03;102090.97;;;7.71;28.11
63946;BME280;50122;56.330;43.838;2023-04-07T09:08:29;102074.28;;;7.83;28.55
63946;BME280;50122;56.330;43.838;2023-04-07T09:10:56;102076.00;;;7.86;27.40
63946;BME280;50122;56.330;43.838;2023-04-07T09:13:24;102074.22;;;7.91;26.92
63946;BME280;50122;56.330;43.838;2023-04-07T09:15:51;102081.34;;;9.13;26.11
63946;BME280;50122;56.330;43.838;2023-04-07T09:18:18;102069.63;;;10.80;23.34
63946;BME280;50122;56.330;43.838;2023-04-07T09:25:58;102055.44;;;13.96;20.26
63946;BME280;50122;56.330;43.838;2023-04-07T09:28:48;102054.47;;;15.10;19.03
63946;BME280;50122;56.330;43.838;2023-04-07T09:31:16;102049.09;;;15.86;18.28
63946;BME280;50122;56.330;43.838;2023-04-07T09:33:42;102048.25;;;16.97;17.22
63946;BME280;50122;56.330;43.838;2023-04-07T09:36:09;102044.22;;;17.49;16.75
63946;BME280;50122;56.330;43.838;2023-04-07T09:38:37;102040.44;;;18.31;15.93
63946;BME280;50122;56.330;43.838;2023-04-07T09:41:15;102048.00;;;18.40;15.52
63946;BME280;50122;56.330;43.838;2023-04-07T09:43:44;102044.97;;;19.02;14.95
63946;BME280;50122;56.330;43.838;2023-04-07T09:46:15;102041.81;;;19.29;14.30
63946;BME280;50122;56.330;43.838;2023-04-07T09:48:43;102047.63;;;19.37;14.22
63946;BME280;50122;56.330;43.838;2023-04-07T09:51:15;102049.00;;;19.79;14.10
63946;BME280;50122;56.330;43.838;2023-04-07T09:53:48;102044.41;;;20.45;13.78
63946;BME280;50122;56.330;43.838;2023-04-07T09:56:19;102037.41;;;21.19;13.19
63946;BME280;50122;56.330;43.838;2023-04-07T09:58:50;102028.31;;;21.65;13.10
63946;BME280;50122;56.330;43.838;2023-04-07T10:01:20;102038.81;;;22.53;12.33
63946;BME280;50122;56.330;43.838;2023-04-07T10:03:47;102036.41;;;23.16;11.71
63946;BME280;50122;56.330;43.838;2023-04-07T10:06:16;102041.53;;;23.06;10.98
63946;BME280;50122;56.330;43.838;2023-04-07T10:08:44;102040.53;;;22.81;11.69
63946;BME280;50122;56.330;43.838;2023-04-07T10:11:14;102026.03;;;23.22;11.74
63946;BME280;50122;56.330;43.838;2023-04-07T10:13:41;102033.53;;;23.82;11.27
63946;BME280;50122;56.330;43.838;2023-04-07T10:16:09;102026.16;;;24.58;10.65
63946;BME280;50122;56.330;43.838;2023-04-07T10:18:36;102025.38;;;25.16;10.40
63946;BME280;50122;56.330;43.838;2023-04-07T10:21:06;102029.53;;;25.44;10.13
63946;BME280;50122;56.330;43.838;2023-04-07T10:23:58;102015.50;;;25.73;10.64
63946;BME280;50122;56.330;43.838;2023-04-07T10:26:32;102024.09;;;25.78;9.80
63946;BME280;50122;56.330;43.838;2023-04-07T10:29:04;102018.19;;;25.73;9.87
63946;BME280;50122;56.330;43.838;2023-04-07T10:31:32;102020.84;;;25.27;9.52
63946;BME280;50122;56.330;43.838;2023-04-07T10:33:59;102032.88;;;25.01;9.69
63946;BME280;50122;56.330;43.838;2023-04-07T10:36:26;102030.25;;;25.57;10.18
63946;BME280;50122;56.330;43.838;2023-04-07T10:41:37;102033.66;;;26.60;9.61
63946;BME280;50122;56.330;43.838;2023-04-07T10:44:09;102036.81;;;27.18;8.96
63946;BME280;50122;56.330;43.838;2023-04-07T10:49:29;102029.41;;;28.33;8.64
63946;BME280;50122;56.330;43.838;2023-04-07T10:54:38;102018.66;;;28.80;8.15
63946;BME280;50122;56.330;43.838;2023-04-07T10:57:08;102016.75;;;29.20;8.01
63946;BME280;50122;56.330;43.838;2023-04-07T10:59:38;102026.56;;;28.83;7.89
63946;BME280;50122;56.330;43.838;2023-04-07T11:04:39;102038.88;;;28.78;8.20
63946;BME280;50122;56.330;43.838;2023-04-07T11:07:07;102031.41;;;28.50;8.37
63946;BME280;50122;56.330;43.838;2023-04-07T11:09:34;102031.28;;;27.92;8.82
63946;BME280;50122;56.330;43.838;2023-04-07T11:12:00;102034.66;;;28.15;9.06
63946;BME280;50122;56.330;43.838;2023-04-07T11:14:30;102020.75;;;29.16;8.55
63946;BME280;50122;56.330;43.838;2023-04-07T11:16:59;102015.47;;;29.61;8.46
63946;BME280;50122;56.330;43.838;2023-04-07T11:19:26;102028.25;;;28.94;8.17
63946;BME280;50122;56.330;43.838;2023-04-07T11:22:13;102030.00;;;28.66;8.79
63946;BME280;50122;56.330;43.838;2023-04-07T11:24:54;102017.06;;;29.26;8.47
63946;BME280;50122;56.330;43.838;2023-04-07T11:27:22;102015.84;;;29.67;8.59
63946;BME280;50122;56.330;43.838;2023-04-07T11:29:49;102006.72;;;30.13;8.51
63946;BME280;50122;56.330;43.838;2023-04-07T11:32:21;102013.59;;;30.36;8.47
63946;BME280;50122;56.330;43.838;2023-04-07T11:34:51;102009.38;;;30.41;8.45
63946;BME280;50122;56.330;43.838;2023-04-07T11:37:25;102012.19;;;31.12;8.65
63946;BME280;50122;56.330;43.838;2023-04-07T11:39:55;102013.50;;;31.60;8.24
63946;BME280;50122;56.330;43.838;2023-04-07T11:42:36;102014.47;;;31.85;8.17
63946;BME280;50122;56.330;43.838;2023-04-07T11:45:04;102007.19;;;31.60;8.23
63946;BME280;50122;56.330;43.838;2023-04-07T11:47:38;102010.94;;;31.32;8.28
63946;BME280;50122;56.330;43.838;2023-04-07T11:50:08;102001.72;;;30.81;8.42
63946;BME280;50122;56.330;43.838;2023-04-07T11:52:43;102009.28;;;30.33;8.73
63946;BME280;50122;56.330;43.838;2023-04-07T11:55:21;101995.88;;;29.86;9.29
63946;BME280;50122;56.330;43.838;2023-04-07T11:57:50;101997.25;;;29.90;9.13
63946;BME280;50122;56.330;43.838;2023-04-07T12:00:18;102004.78;;;30.42;9.16
63946;BME280;50122;56.330;43.838;2023-04-07T12:02:45;102000.88;;;31.33;8.67
63946;BME280;50122;56.330;43.838;2023-04-07T12:05:12;102000.06;;;31.75;8.66
63946;BME280;50122;56.330;43.838;2023-04-07T12:07:39;102002.41;;;30.83;8.80
63946;BME280;50122;56.330;43.838;2023-04-07T12:10:21;102000.44;;;30.93;9.22
63946;BME280;50122;56.330;43.838;2023-04-07T12:12:49;101993.72;;;31.75;9.01
63946;BME280;50122;56.330;43.838;2023-04-07T12:15:16;101997.31;;;31.67;8.16
63946;BME280;50122;56.330;43.838;2023-04-07T12:17:44;101995.94;;;31.37;8.35
63946;BME280;50122;56.330;43.838;2023-04-07T12:20:15;101989.22;;;31.23;8.72
63946;BME280;50122;56.330;43.838;2023-04-07T12:22:42;102001.13;;;31.13;8.77
63946;BME280;50122;56.330;43.838;2023-04-07T12:25:09;101993.34;;;31.00;9.08
63946;BME280;50122;56.330;43.838;2023-04-07T12:27:35;101994.56;;;30.80;8.93
63946;BME280;50122;56.330;43.838;2023-04-07T12:30:10;101985.47;;;30.35;9.46
63946;BME280;50122;56.330;43.838;2023-04-07T12:32:38;101985.75;;;30.14;9.49
63946;BME280;50122;56.330;43.838;2023-04-07T12:35:05;101987.81;;;30.48;9.21
63946;BME280;50122;56.330;43.838;2023-04-07T12:37:32;101990.00;;;30.62;9.16
63946;BME280;50122;56.330;43.838;2023-04-07T12:40:01;101991.06;;;30.16;9.17
63946;BME280;50122;56.330;43.838;2023-04-07T12:42:27;101990.28;;;30.05;9.69
63946;BME280;50122;56.330;43.838;2023-04-07T12:44:54;101994.88;;;30.77;9.07
63946;BME280;50122;56.330;43.838;2023-04-07T12:47:22;101987.31;;;30.35;8.95
63946;BME280;50122;56.330;43.838;2023-04-07T12:49:48;101987.03;;;30.56;9.22
63946;BME280;50122;56.330;43.838;2023-04-07T12:52:18;101985.78;;;30.68;8.70
63946;BME280;50122;56.330;43.838;2023-04-07T12:54:45;101985.53;;;30.61;8.99
63946;BME280;50122;56.330;43.838;2023-04-07T12:57:12;101992.69;;;29.80;8.96
63946;BME280;50122;56.330;43.838;2023-04-07T12:59:38;101982.34;;;29.28;9.66
63946;BME280;50122;56.330;43.838;2023-04-07T13:02:05;101983.63;;;29.34;9.48
63946;BME280;50122;56.330;43.838;2023-04-07T13:04:32;101985.69;;;29.03;9.92
63946;BME280;50122;56.330;43.838;2023-04-07T13:07:00;101988.19;;;28.76;10.29
63946;BME280;50122;56.330;43.838;2023-04-07T13:09:28;101979.47;;;29.20;10.08
63946;BME280;50122;56.330;43.838;2023-04-07T13:11:55;101981.59;;;28.79;9.62
63946;BME280;50122;56.330;43.838;2023-04-07T13:14:23;101985.44;;;28.57;9.92
63946;BME280;50122;56.330;43.838;2023-04-07T13:16:49;101983.34;;;29.27;10.01
63946;BME280;50122;56.330;43.838;2023-04-07T13:19:16;101978.44;;;29.69;9.76
63946;BME280;50122;56.330;43.838;2023-04-07T13:21:43;101971.84;;;28.86;9.42
63946;BME280;50122;56.330;43.838;2023-04-07T13:24:12;101988.09;;;27.88;10.05
63946;BME280;50122;56.330;43.838;2023-04-07T13:26:39;101981.38;;;27.83;10.67
63946;BME280;50122;56.330;43.838;2023-04-07T13:29:06;101983.38;;;27.90;10.56
63946;BME280;50122;56.330;43.838;2023-04-07T13:31:32;101980.31;;;28.73;9.51
63946;BME280;50122;56.330;43.838;2023-04-07T13:33:59;101977.47;;;28.65;9.96
63946;BME280;50122;56.330;43.838;2023-04-07T13:36:26;101984.25;;;27.91;10.10
63946;BME280;50122;56.330;43.838;2023-04-07T13:38:53;101984.72;;;27.55;10.19
63946;BME280;50122;56.330;43.838;2023-04-07T13:41:20;101987.09;;;27.18;10.31
63946;BME280;50122;56.330;43.838;2023-04-07T13:43:47;101977.00;;;26.78;10.92
63946;BME280;50122;56.330;43.838;2023-04-07T13:46:14;101972.97;;;26.72;10.70
63946;BME280;50122;56.330;43.838;2023-04-07T13:48:54;101974.63;;;26.31;11.20
63946;BME280;50122;56.330;43.838;2023-04-07T13:51:23;101973.97;;;25.95;11.65
63946;BME280;50122;56.330;43.838;2023-04-07T13:53:50;101976.84;;;26.26;11.18
63946;BME280;50122;56.330;43.838;2023-04-07T13:56:17;101976.94;;;26.35;11.19
63946;BME280;50122;56.330;43.838;2023-04-07T13:58:43;101978.75;;;26.46;11.21
63946;BME280;50122;56.330;43.838;2023-04-07T14:01:10;101971.38;;;26.05;11.21
63946;BME280;50122;56.330;43.838;2023-04-07T14:03:37;101976.31;;;25.88;11.83
63946;BME280;50122;56.330;43.838;2023-04-07T14:06:04;101981.41;;;25.59;12.08
63946;BME280;50122;56.330;43.838;2023-04-07T14:08:31;101972.66;;;25.66;11.84
63946;BME280;50122;56.330;43.838;2023-04-07T14:10:58;101977.50;;;24.58;12.13
63946;BME280;50122;56.330;43.838;2023-04-07T14:13:24;101982.13;;;22.54;13.49
63946;BME280;50122;56.330;43.838;2023-04-07T14:15:51;101978.16;;;20.45;15.37
63946;BME280;50122;56.330;43.838;2023-04-07T14:18:19;101989.16;;;19.77;16.37
63946;BME280;50122;56.330;43.838;2023-04-07T14:20:46;101984.63;;;20.57;16.03
63946;BME280;50122;56.330;43.838;2023-04-07T14:23:12;101982.03;;;21.60;14.83
63946;BME280;50122;56.330;43.838;2023-04-07T14:25:45;101975.75;;;22.43;14.38
63946;BME280;50122;56.330;43.838;2023-04-07T14:28:13;101980.69;;;23.02;14.27
63946;BME280;50122;56.330;43.838;2023-04-07T14:30:39;101980.69;;;22.89;13.83
63946;BME280;50122;56.330;43.838;2023-04-07T14:33:06;101974.91;;;22.95;14.18
63946;BME280;50122;56.330;43.838;2023-04-07T14:35:35;101991.78;;;22.71;14.27
63946;BME280;50122;56.330;43.838;2023-04-07T14:38:02;101980.44;;;22.53;14.21
63946;BME280;50122;56.330;43.838;2023-04-07T14:40:29;101982.38;;;22.64;14.53
63946;BME280;50122;56.330;43.838;2023-04-07T14:42:56;101986.00;;;22.23;14.56
63946;BME280;50122;56.330;43.838;2023-04-07T14:45:27;101991.03;;;21.59;15.24
63946;BME280;50122;56.330;43.838;2023-04-07T14:47:54;101987.00;;;21.51;15.19
63946;BME280;50122;56.330;43.838;2023-04-07T14:50:22;101986.50;;;21.30;15.58
63946;BME280;50122;56.330;43.838;2023-04-07T14:52:49;101988.81;;;21.37;15.68
63946;BME280;50122;56.330;43.838;2023-04-07T14:55:15;101989.13;;;21.32;15.48
63946;BME280;50122;56.330;43.838;2023-04-07T14:57:44;101994.03;;;20.80;15.45
63946;BME280;50122;56.330;43.838;2023-04-07T15:00:11;101993.78;;;20.69;15.80
63946;BME280;50122;56.330;43.838;2023-04-07T15:02:38;101996.38;;;20.24;16.22
63946;BME280;50122;56.330;43.838;2023-04-07T15:05:06;102007.22;;;19.57;16.35
63946;BME280;50122;56.330;43.838;2023-04-07T15:07:33;101995.53;;;19.25;17.06
63946;BME280;50122;56.330;43.838;2023-04-07T15:10:00;102007.06;;;18.92;17.48
63946;BME280;50122;56.330;43.838;2023-04-07T15:12:27;102001.00;;;18.71;17.78
63946;BME280;50122;56.330;43.838;2023-04-07T15:14:55;102002.13;;;18.30;17.97
63946;BME280;50122;56.330;43.838;2023-04-07T15:17:21;102001.22;;;17.93;18.56
63946;BME280;50122;56.330;43.838;2023-04-07T15:20:01;101993.16;;;17.55;18.71
63946;BME280;50122;56.330;43.838;2023-04-07T15:22:28;102010.34;;;17.29;18.86
63946;BME280;50122;56.330;43.838;2023-04-07T15:24:56;102001.16;;;16.95;19.26
63946;BME280;50122;56.330;43.838;2023-04-07T15:27:22;102003.69;;;16.55;20.01
63946;BME280;50122;56.330;43.838;2023-04-07T15:29:49;102006.31;;;16.12;20.35
63946;BME280;50122;56.330;43.838;2023-04-07T15:32:16;102010.53;;;15.71;20.92
63946;BME280;50122;56.330;43.838;2023-04-07T15:34:43;102011.66;;;15.41;21.26
63946;BME280;50122;56.330;43.838;2023-04-07T15:37:09;102020.88;;;15.06;21.57
63946;BME280;50122;56.330;43.838;2023-04-07T15:39:37;102023.63;;;14.49;22.00
63946;BME280;50122;56.330;43.838;2023-04-07T15:42:03;102023.28;;;13.75;23.06
63946;BME280;50122;56.330;43.838;2023-04-07T15:44:30;102026.19;;;13.00;23.97
63946;BME280;50122;56.330;43.838;2023-04-07T15:47:05;102029.56;;;12.34;24.76
63946;BME280;50122;56.330;43.838;2023-04-07T15:49:34;102034.19;;;11.82;25.45
63946;BME280;50122;56.330;43.838;2023-04-07T15:52:05;102035.41;;;11.22;26.60
63946;BME280;50122;56.330;43.838;2023-04-07T15:54:33;102044.81;;;10.87;26.77
63946;BME280;50122;56.330;43.838;2023-04-07T15:57:00;102043.53;;;10.57;27.64
63946;BME280;50122;56.330;43.838;2023-04-07T15:59:26;102046.53;;;10.32;27.79
63946;BME280;50122;56.330;43.838;2023-04-07T16:01:56;102049.44;;;10.14;28.03
63946;BME280;50122;56.330;43.838;2023-04-07T16:04:24;102046.22;;;9.91;28.33
63946;BME280;50122;56.330;43.838;2023-04-07T16:06:50;102050.84;;;9.72;28.88
63946;BME280;50122;56.330;43.838;2023-04-07T16:09:18;102063.34;;;9.56;29.12
63946;BME280;50122;56.330;43.838;2023-04-07T16:11:44;102058.22;;;9.43;29.30
63946;BME280;50122;56.330;43.838;2023-04-07T16:14:11;102056.63;;;9.28;29.66
63946;BME280;50122;56.330;43.838;2023-04-07T16:16:38;102052.44;;;9.05;30.00
63946;BME280;50122;56.330;43.838;2023-04-07T16:19:06;102060.47;;;8.91;31.17
63946;BME280;50122;56.330;43.838;2023-04-07T16:21:33;102064.97;;;8.80;31.14
63946;BME280;50122;56.330;43.838;2023-04-07T16:24:01;102058.88;;;8.70;30.81
63946;BME280;50122;56.330;43.838;2023-04-07T16:26:28;102059.88;;;8.57;30.92
63946;BME280;50122;56.330;43.838;2023-04-07T16:28:54;102067.81;;;8.49;31.18
63946;BME280;50122;56.330;43.838;2023-04-07T16:31:21;102066.97;;;8.42;31.45
63946;BME280;50122;56.330;43.838;2023-04-07T16:33:51;102060.81;;;8.39;31.57
63946;BME280;50122;56.330;43.838;2023-04-07T16:36:17;102075.78;;;8.29;31.34
63946;BME280;50122;56.330;43.838;2023-04-07T16:38:47;102082.00;;;8.18;32.03
63946;BME280;50122;56.330;43.838;2023-04-07T16:41:16;102087.28;;;8.14;31.73
63946;BME280;50122;56.330;43.838;2023-04-07T16:43:43;102086.44;;;8.07;31.74
63946;BME280;50122;56.330;43.838;2023-04-07T16:46:10;102088.25;;;7.96;32.05
63946;BME280;50122;56.330;43.838;2023-04-07T16:48:37;102090.06;;;7.85;32.02
63946;BME280;50122;56.330;43.838;2023-04-07T16:51:05;102089.16;;;7.84;32.26
63946;BME280;50122;56.330;43.838;2023-04-07T16:53:32;102091.78;;;7.86;32.41
63946;BME280;50122;56.330;43.838;2023-04-07T16:55:58;102101.47;;;7.79;32.26
63946;BME280;50122;56.330;43.838;2023-04-07T16:58:25;102098.88;;;7.68;32.48
63946;BME280;50122;56.330;43.838;2023-04-07T17:00:52;102108.56;;;7.58;32.79
63946;BME280;50122;56.330;43.838;2023-04-07T17:03:18;102105.94;;;7.51;33.18
63946;BME280;50122;56.330;43.838;2023-04-07T17:05:45;102111.19;;;7.49;32.58
63946;BME280;50122;56.330;43.838;2023-04-07T17:08:14;102102.44;;;7.44;32.66
63946;BME280;50122;56.330;43.838;2023-04-07T17:10:40;102105.06;;;7.42;32.98
63946;BME280;50122;56.330;43.838;2023-04-07T17:13:07;102103.31;;;7.30;32.83
63946;BME280;50122;56.330;43.838;2023-04-07T17:15:35;102107.72;;;7.22;33.03
63946;BME280;50122;56.330;43.838;2023-04-07T17:18:03;102114.72;;;7.19;32.82
63946;BME280;50122;56.330;43.838;2023-04-07T17:20:30;102111.25;;;7.18;33.12
63946;BME280;50122;56.330;43.838;2023-04-07T17:22:57;102120.88;;;7.07;33.22
63946;BME280;50122;56.330;43.838;2023-04-07T17:25:23;102115.63;;;7.02;33.50
63946;BME280;50122;56.330;43.838;2023-04-07T17:27:50;102120.84;;;6.96;33.71
63946;BME280;50122;56.330;43.838;2023-04-07T17:30:21;102126.13;;;6.87;34.14
63946;BME280;50122;56.330;43.838;2023-04-07T17:32:48;102128.72;;;6.74;34.44
63946;BME280;50122;56.330;43.838;2023-04-07T17:35:19;102137.47;;;6.67;34.47
63946;BME280;50122;56.330;43.838;2023-04-07T17:37:46;102133.06;;;6.57;33.87
63946;BME280;50122;56.330;43.838;2023-04-07T17:40:13;102136.53;;;6.48;34.66
63946;BME280;50122;56.330;43.838;2023-04-07T17:42:40;102139.16;;;6.42;34.56
63946;BME280;50122;56.330;43.838;2023-04-07T17:45:08;102146.16;;;6.40;34.96
63946;BME280;50122;56.330;43.838;2023-04-07T17:47:36;102147.03;;;6.37;34.83
63946;BME280;50122;56.330;43.838;2023-04-07T17:50:03;102147.03;;;6.37;35.00
63946;BME280;50122;56.330;43.838;2023-04-07T17:52:31;102144.41;;;6.33;35.02
63946;BME280;50122;56.330;43.838;2023-04-07T17:54:59;102147.88;;;6.24;35.36
63946;BME280;50122;56.330;43.838;2023-04-07T17:57:26;102147.81;;;6.16;34.99